createdAt,value
2018-07-25T00:02:17.044Z,22.80
2018-07-25T00:04:45.471Z,23.10
2018-07-25T00:07:13.904Z,23.10
2018-07-25T00:09:42.405Z,23.10
2018-07-25T00:12:10.829Z,23.00
2018-07-25T00:14:39.228Z,23.00
2018-07-25T00:17:07.631Z,23.10
2018-07-25T00:19:36.071Z,23.10
2018-07-25T00:22:04.572Z,23.10
2018-07-25T00:24:32.993Z,23.00
2018-07-25T00:27:01.419Z,23.10
2018-07-25T00:29:29.837Z,23.10
2018-07-25T00:31:58.248Z,23.10
2018-07-25T00:34:26.612Z,23.10
2018-07-25T00:36:55.053Z,23.10
2018-07-25T00:39:23.444Z,23.00
2018-07-25T00:41:51.868Z,23.00
2018-07-25T00:44:20.236Z,22.90
2018-07-25T00:46:48.625Z,23.00
2018-07-25T00:49:17.008Z,22.90
2018-07-25T00:51:45.507Z,22.90
2018-07-25T00:54:13.903Z,22.80
2018-07-25T00:56:42.338Z,22.80
2018-07-25T00:59:10.784Z,22.80
2018-07-25T01:01:39.212Z,22.70
2018-07-25T01:04:07.597Z,22.70
2018-07-25T01:06:35.959Z,22.70
2018-07-25T01:09:06.289Z,22.80
2018-07-25T01:11:34.859Z,22.80
2018-07-25T01:14:03.248Z,22.70
2018-07-25T01:16:31.816Z,22.60
2018-07-25T01:19:00.202Z,22.50
2018-07-25T01:21:28.608Z,22.40
2018-07-25T01:23:57.101Z,22.40
2018-07-25T01:26:25.463Z,22.30
2018-07-25T01:28:53.844Z,22.40
2018-07-25T01:31:22.267Z,22.30
2018-07-25T01:36:18.925Z,22.20
2018-07-25T01:38:47.329Z,22.10
2018-07-25T01:41:15.745Z,22.10
2018-07-25T01:43:44.191Z,22.10
2018-07-25T01:46:12.603Z,22.00
2018-07-25T01:48:41.016Z,22.00
2018-07-25T01:51:09.403Z,22.00
2018-07-25T01:53:37.771Z,21.90
2018-07-25T01:56:06.557Z,21.90
2018-07-25T01:58:34.921Z,21.80
2018-07-25T02:01:03.346Z,21.80
2018-07-25T02:03:31.753Z,21.70
2018-07-25T02:06:00.158Z,21.70
2018-07-25T02:08:28.596Z,21.70
2018-07-25T02:10:57.023Z,21.60
2018-07-25T02:13:25.399Z,21.60
2018-07-25T02:15:53.793Z,21.60
2018-07-25T02:18:22.167Z,21.60
2018-07-25T02:20:50.596Z,21.60
2018-07-25T02:23:19.002Z,21.50
2018-07-25T02:25:47.519Z,21.50
2018-07-25T02:28:15.919Z,21.40
2018-07-25T02:30:44.337Z,21.40
2018-07-25T02:33:12.744Z,21.40
2018-07-25T02:35:41.136Z,21.40
2018-07-25T02:38:09.540Z,21.30
2018-07-25T02:40:37.934Z,21.30
2018-07-25T02:43:06.620Z,21.20
2018-07-25T02:45:40.233Z,21.20
2018-07-25T02:48:08.649Z,21.20
2018-07-25T02:50:37.037Z,21.20
2018-07-25T02:53:05.472Z,21.20
2018-07-25T02:55:33.853Z,21.10
2018-07-25T02:58:02.257Z,21.10
2018-07-25T03:00:31.125Z,21.10
2018-07-25T03:02:59.535Z,21.00
2018-07-25T03:05:27.933Z,21.00
2018-07-25T03:07:56.376Z,21.00
2018-07-25T03:10:25.062Z,20.90
2018-07-25T03:12:53.773Z,20.90
2018-07-25T03:15:22.148Z,20.90
2018-07-25T03:17:50.556Z,20.80
2018-07-25T03:20:18.962Z,20.80
2018-07-25T03:22:47.376Z,20.80
2018-07-25T03:25:15.845Z,20.80
2018-07-25T03:27:44.240Z,20.80
2018-07-25T03:30:12.637Z,20.80
2018-07-25T03:32:41.053Z,20.70
2018-07-25T03:35:09.457Z,20.70
2018-07-25T03:37:37.892Z,20.70
2018-07-25T03:40:06.456Z,20.70
2018-07-25T03:42:34.921Z,20.70
2018-07-25T03:45:03.412Z,20.60
2018-07-25T03:47:31.804Z,20.60
2018-07-25T03:50:00.257Z,20.60
2018-07-25T03:52:28.684Z,20.50
2018-07-25T03:54:57.100Z,20.50
2018-07-25T03:57:25.524Z,20.50
2018-07-25T03:59:53.941Z,20.50
2018-07-25T04:02:22.329Z,20.50
2018-07-25T04:04:50.746Z,20.50
2018-07-25T04:07:19.131Z,20.50
2018-07-25T04:09:47.573Z,20.50
2018-07-25T04:12:15.994Z,20.50
2018-07-25T04:14:44.450Z,20.50
2018-07-25T04:17:12.868Z,20.40
2018-07-25T04:19:41.599Z,20.40
2018-07-25T04:22:10.024Z,20.40
2018-07-25T04:24:38.488Z,20.40
2018-07-25T04:27:06.895Z,20.40
2018-07-25T04:29:35.332Z,20.40
2018-07-25T04:32:03.782Z,20.40
2018-07-25T04:34:32.186Z,20.40
2018-07-25T04:37:00.636Z,20.40
2018-07-25T04:39:29.027Z,20.50
2018-07-25T04:41:57.471Z,20.40
2018-07-25T04:44:25.850Z,20.50
2018-07-25T04:46:54.305Z,20.50
2018-07-25T04:49:22.699Z,20.60
2018-07-25T04:51:51.121Z,20.60
2018-07-25T04:54:19.560Z,20.60
2018-07-25T04:56:48.012Z,20.60
2018-07-25T04:59:16.463Z,20.70
2018-07-25T05:01:44.874Z,20.80
2018-07-25T05:04:13.260Z,20.80
2018-07-25T05:06:41.665Z,20.90
2018-07-25T05:09:10.646Z,21.00
2018-07-25T05:11:39.228Z,21.00
2018-07-25T05:14:08.028Z,21.00
2018-07-25T05:16:36.704Z,21.10
2018-07-25T05:19:05.204Z,21.10
2018-07-25T05:21:33.636Z,21.20
2018-07-25T05:24:02.666Z,21.20
2018-07-25T05:26:31.228Z,21.30
2018-07-25T05:28:59.655Z,21.40
2018-07-25T05:31:28.070Z,21.50
2018-07-25T05:33:56.509Z,21.60
2018-07-25T05:36:25.048Z,21.80
2018-07-25T05:38:53.568Z,22.00
2018-07-25T05:41:22.033Z,22.20
2018-07-25T05:43:50.583Z,22.60
2018-07-25T05:46:19.636Z,23.50
2018-07-25T05:48:48.370Z,24.50
2018-07-25T05:51:16.752Z,25.70
2018-07-25T05:53:45.580Z,26.60
2018-07-25T05:56:14.003Z,27.20
2018-07-25T05:58:42.504Z,27.70
2018-07-25T06:01:11.019Z,28.40
2018-07-25T06:03:39.448Z,28.70
2018-07-25T06:06:07.935Z,28.40
2018-07-25T06:08:36.599Z,28.50
2018-07-25T06:11:05.469Z,28.40
2018-07-25T06:13:33.884Z,28.40
2018-07-25T06:16:02.424Z,28.30
2018-07-25T06:18:30.796Z,28.40
2018-07-25T06:20:59.305Z,28.10
2018-07-25T06:23:27.742Z,27.70
2018-07-25T06:25:56.184Z,27.20
2018-07-25T06:28:24.653Z,26.70
2018-07-25T06:30:53.192Z,25.90
2018-07-25T06:33:21.632Z,25.30
2018-07-25T06:35:50.049Z,25.20
2018-07-25T06:38:18.593Z,25.60
2018-07-25T06:40:47.072Z,26.40
2018-07-25T06:43:15.527Z,26.60
2018-07-25T06:45:43.919Z,26.20
2018-07-25T06:48:12.354Z,26.20
2018-07-25T06:50:40.800Z,26.20
2018-07-25T06:53:09.232Z,26.20
2018-07-25T06:55:37.648Z,26.30
2018-07-25T06:58:06.139Z,26.40
2018-07-25T07:00:34.527Z,26.50
2018-07-25T07:05:31.109Z,26.30
2018-07-25T07:07:59.597Z,26.30
2018-07-25T07:10:27.998Z,26.40
2018-07-25T07:12:56.415Z,26.50
2018-07-25T07:15:24.921Z,26.40
2018-07-25T07:17:53.373Z,26.30
2018-07-25T07:20:21.813Z,26.50
2018-07-25T07:22:50.513Z,26.20
2018-07-25T07:25:18.892Z,26.40
2018-07-25T07:27:47.291Z,26.50
2018-07-25T07:30:15.736Z,26.50
2018-07-25T07:32:44.185Z,26.60
2018-07-25T07:35:12.604Z,26.50
2018-07-25T07:37:41.059Z,26.20
2018-07-25T07:40:09.477Z,26.20
2018-07-25T07:42:37.928Z,26.50
2018-07-25T07:45:08.363Z,26.60
2018-07-25T07:47:36.823Z,26.70
2018-07-25T07:50:05.961Z,27.00
2018-07-25T07:52:34.652Z,27.10
2018-07-25T07:55:03.229Z,27.00
2018-07-25T07:57:31.673Z,27.30
2018-07-25T08:00:00.072Z,27.20
2018-07-25T08:02:28.492Z,27.30
2018-07-25T08:04:56.983Z,27.30
2018-07-25T08:07:25.422Z,27.30
2018-07-25T08:09:53.922Z,27.70
2018-07-25T08:12:22.320Z,27.60
2018-07-25T08:14:50.727Z,27.70
2018-07-25T08:17:19.114Z,27.40
2018-07-25T08:19:47.586Z,27.90
2018-07-25T08:22:16.005Z,27.80
2018-07-25T08:24:44.420Z,27.80
2018-07-25T08:27:12.808Z,27.80
2018-07-25T08:29:41.225Z,27.60
2018-07-25T08:32:09.651Z,27.70
2018-07-25T08:34:38.187Z,27.50
2018-07-25T08:37:06.508Z,27.40
2018-07-25T08:39:34.959Z,27.40
2018-07-25T08:42:03.452Z,27.50
2018-07-25T08:44:31.860Z,27.60
2018-07-25T08:47:00.294Z,27.50
2018-07-25T08:49:28.681Z,27.60
2018-07-25T08:51:57.108Z,27.90
2018-07-25T08:54:25.541Z,28.10
2018-07-25T08:56:53.976Z,28.10
2018-07-25T08:59:22.376Z,28.10
2018-07-25T09:01:50.852Z,28.40
2018-07-25T09:04:19.275Z,28.20
2018-07-25T09:06:47.688Z,28.00
2018-07-25T09:09:16.163Z,28.00
2018-07-25T09:11:44.609Z,28.30
2018-07-25T09:14:13.014Z,28.30
2018-07-25T09:16:41.615Z,28.50
2018-07-25T09:19:09.973Z,28.90
2018-07-25T09:21:38.376Z,28.90
2018-07-25T09:24:06.849Z,28.90
2018-07-25T09:26:35.278Z,29.00
2018-07-25T09:29:03.666Z,29.10
2018-07-25T09:31:32.138Z,29.00
2018-07-25T09:34:00.646Z,29.10
2018-07-25T09:36:29.063Z,29.00
2018-07-25T09:38:57.524Z,28.70
2018-07-25T09:41:25.996Z,29.00
2018-07-25T09:46:22.575Z,29.40
2018-07-25T09:48:51.055Z,28.70
2018-07-25T09:51:19.538Z,28.90
2018-07-25T09:53:47.968Z,28.90
2018-07-25T09:56:16.390Z,29.00
2018-07-25T09:58:44.897Z,29.30
2018-07-25T10:01:13.400Z,29.40
2018-07-25T10:03:41.845Z,29.60
2018-07-25T10:06:10.252Z,29.40
2018-07-25T10:08:38.695Z,29.50
2018-07-25T10:11:07.116Z,29.80
2018-07-25T10:13:35.645Z,29.70
2018-07-25T10:16:04.106Z,29.70
2018-07-25T10:18:32.505Z,29.90
2018-07-25T10:21:00.939Z,30.00
2018-07-25T10:23:29.362Z,29.90
2018-07-25T10:25:57.776Z,30.20
2018-07-25T10:28:26.240Z,30.30
2018-07-25T10:30:54.641Z,30.30
2018-07-25T10:33:23.099Z,30.40
2018-07-25T10:35:51.549Z,30.40
2018-07-25T10:38:20.051Z,30.60
2018-07-25T10:43:16.651Z,30.80
2018-07-25T10:45:45.160Z,30.70
2018-07-25T10:48:13.559Z,30.70
2018-07-25T10:50:42.040Z,30.60
2018-07-25T10:53:10.432Z,30.50
2018-07-25T10:55:38.900Z,30.60
2018-07-25T10:58:07.520Z,30.80
2018-07-25T11:00:35.986Z,30.80
2018-07-25T11:03:04.510Z,31.10
2018-07-25T11:05:32.968Z,31.10
2018-07-25T11:08:01.524Z,31.20
2018-07-25T11:10:30.051Z,31.40
2018-07-25T11:12:58.558Z,31.50
2018-07-25T11:15:27.064Z,31.50
2018-07-25T11:17:55.500Z,31.50
2018-07-25T11:20:23.942Z,31.60
2018-07-25T11:22:52.428Z,31.60
2018-07-25T11:25:22.518Z,31.30
2018-07-25T11:27:50.976Z,31.50
2018-07-25T11:30:19.504Z,31.60
2018-07-25T11:32:47.975Z,31.60
2018-07-25T11:35:16.381Z,31.80
2018-07-25T11:37:44.972Z,31.70
2018-07-25T11:40:13.396Z,31.90
2018-07-25T11:42:42.044Z,31.90
2018-07-25T11:45:10.522Z,31.80
2018-07-25T11:47:38.997Z,31.80
2018-07-25T11:50:07.497Z,32.10
2018-07-25T11:52:35.836Z,32.10
2018-07-25T11:55:04.802Z,32.10
2018-07-25T11:57:33.230Z,32.00
2018-07-25T12:00:01.630Z,32.20
2018-07-25T12:02:30.058Z,32.20
2018-07-25T12:04:58.475Z,32.30
2018-07-25T12:07:26.942Z,32.40
2018-07-25T12:09:55.412Z,32.30
2018-07-25T12:12:23.934Z,32.40
2018-07-25T12:14:52.408Z,32.50
2018-07-25T12:17:20.887Z,32.50
2018-07-25T12:19:49.455Z,32.50
2018-07-25T12:22:17.923Z,32.50
2018-07-25T12:24:46.399Z,32.50
2018-07-25T12:27:14.858Z,32.70
2018-07-25T12:29:44.048Z,32.80
2018-07-25T12:32:12.592Z,32.80
2018-07-25T12:34:41.016Z,33.00
2018-07-25T12:37:09.476Z,33.00
2018-07-25T12:39:37.896Z,33.00
2018-07-25T12:42:06.500Z,33.10
2018-07-25T12:44:34.956Z,33.20
2018-07-25T12:47:03.521Z,32.80
2018-07-25T12:49:32.024Z,32.90
2018-07-25T12:52:00.423Z,33.00
2018-07-25T12:54:28.856Z,33.10
2018-07-25T12:56:57.317Z,33.00
2018-07-25T12:59:25.783Z,32.80
2018-07-25T13:01:54.271Z,33.00
2018-07-25T13:04:22.711Z,33.20
2018-07-25T13:06:51.129Z,33.30
2018-07-25T13:09:19.540Z,33.50
2018-07-25T13:11:47.977Z,33.70
2018-07-25T13:14:16.448Z,34.00
2018-07-25T13:16:44.841Z,33.90
2018-07-25T13:19:13.263Z,34.10
2018-07-25T13:21:41.721Z,34.20
2018-07-25T13:24:10.203Z,34.00
2018-07-25T13:26:38.705Z,33.90
2018-07-25T13:29:07.320Z,33.90
2018-07-25T13:31:35.779Z,33.70
2018-07-25T13:34:04.428Z,34.00
2018-07-25T13:36:32.861Z,34.30
2018-07-25T13:39:01.486Z,34.30
2018-07-25T13:41:29.891Z,34.30
2018-07-25T13:43:58.378Z,34.20
2018-07-25T13:46:26.954Z,34.30
2018-07-25T13:48:55.343Z,34.30
2018-07-25T13:51:23.806Z,34.10
2018-07-25T13:53:52.268Z,33.60
2018-07-25T13:56:20.769Z,33.50
2018-07-25T13:58:49.589Z,33.10
2018-07-25T14:01:18.141Z,32.70
2018-07-25T14:03:46.804Z,32.50
2018-07-25T14:06:15.757Z,32.30
2018-07-25T14:08:44.204Z,32.20
2018-07-25T14:11:13.262Z,32.40
2018-07-25T14:16:10.196Z,32.70
2018-07-25T14:18:38.685Z,32.70
2018-07-25T14:21:07.351Z,32.80
2018-07-25T14:23:35.831Z,32.50
2018-07-25T14:26:04.271Z,32.30
2018-07-25T14:28:32.748Z,32.20
2018-07-25T14:31:01.202Z,32.30
2018-07-25T14:33:29.624Z,32.40
2018-07-25T14:35:58.065Z,32.60
2018-07-25T14:38:26.656Z,32.40
2018-07-25T14:40:55.084Z,32.50
2018-07-25T14:43:23.571Z,32.70
2018-07-25T14:45:51.940Z,32.90
2018-07-25T14:48:20.352Z,33.00
2018-07-25T14:50:48.780Z,33.00
2018-07-25T14:53:23.842Z,33.00
2018-07-25T14:55:52.260Z,32.80
2018-07-25T14:58:20.932Z,33.00
2018-07-25T15:00:49.394Z,33.20
2018-07-25T15:03:18.096Z,33.20
2018-07-25T15:05:46.517Z,33.20
2018-07-25T15:08:15.059Z,33.50
2018-07-25T15:10:43.597Z,33.80
2018-07-25T15:13:12.123Z,33.80
2018-07-25T15:15:40.529Z,33.50
2018-07-25T15:18:09.024Z,33.60
2018-07-25T15:20:37.490Z,33.60
2018-07-25T15:23:05.945Z,33.90
2018-07-25T15:25:34.373Z,33.90
2018-07-25T15:28:02.818Z,33.60
2018-07-25T15:30:31.273Z,33.70
2018-07-25T15:32:59.768Z,33.50
2018-07-25T15:35:28.236Z,33.30
2018-07-25T15:37:56.949Z,33.40
2018-07-25T15:40:25.415Z,33.60
2018-07-25T15:42:53.913Z,33.80
2018-07-25T15:45:22.431Z,34.10
2018-07-25T15:47:50.960Z,33.90
2018-07-25T15:50:19.498Z,33.90
2018-07-25T15:52:48.156Z,34.10
2018-07-25T15:55:16.646Z,34.20
2018-07-25T15:57:45.217Z,33.90
2018-07-25T16:00:13.770Z,33.90
2018-07-25T16:02:42.287Z,33.90
2018-07-25T16:05:10.773Z,33.50
2018-07-25T16:07:39.281Z,33.60
2018-07-25T16:10:07.756Z,33.50
2018-07-25T16:12:36.185Z,33.60
2018-07-25T16:15:04.727Z,33.50
2018-07-25T16:17:33.213Z,33.30
2018-07-25T16:20:01.801Z,33.20
2018-07-25T16:22:30.281Z,33.20
2018-07-25T16:24:58.748Z,33.00
2018-07-25T16:27:27.198Z,32.80
2018-07-25T16:29:56.126Z,32.90
2018-07-25T16:32:24.576Z,32.90
2018-07-25T16:34:53.033Z,32.90
2018-07-25T16:37:21.640Z,32.80
2018-07-25T16:39:50.116Z,32.80
2018-07-25T16:42:18.601Z,32.70
2018-07-25T16:44:47.196Z,32.70
2018-07-25T16:47:15.676Z,32.60
2018-07-25T16:49:44.211Z,32.50
2018-07-25T16:52:12.756Z,32.30
2018-07-25T16:54:41.197Z,32.30
2018-07-25T16:57:09.914Z,32.40
2018-07-25T16:59:38.388Z,32.10
2018-07-25T17:04:35.077Z,32.10
2018-07-25T17:07:03.492Z,32.30
2018-07-25T17:09:32.015Z,32.30
2018-07-25T17:12:00.475Z,32.10
2018-07-25T17:14:29.031Z,32.20
2018-07-25T17:16:57.488Z,32.40
2018-07-25T17:19:25.929Z,32.50
2018-07-25T17:21:54.526Z,32.30
2018-07-25T17:24:23.081Z,32.40
2018-07-25T17:26:51.550Z,32.40
2018-07-25T17:29:20.017Z,32.10
2018-07-25T17:31:48.454Z,32.20
2018-07-25T17:34:17.093Z,32.20
2018-07-25T17:36:45.616Z,32.20
2018-07-25T17:39:14.076Z,31.90
2018-07-25T17:41:42.876Z,31.70
2018-07-25T17:44:11.328Z,31.60
2018-07-25T17:46:40.051Z,31.70
2018-07-25T17:49:09.151Z,31.50
2018-07-25T17:51:37.752Z,31.30
2018-07-25T17:54:06.693Z,31.30
2018-07-25T17:56:35.162Z,31.30
2018-07-25T17:59:03.677Z,31.30
2018-07-25T18:01:32.114Z,31.30
2018-07-25T18:04:00.532Z,31.20
2018-07-25T18:06:28.963Z,31.10
2018-07-25T18:08:57.422Z,30.90
2018-07-25T18:11:25.920Z,30.90
2018-07-25T18:13:59.728Z,30.90
2018-07-25T18:16:28.235Z,30.80
2018-07-25T18:18:56.672Z,30.70
2018-07-25T18:21:25.104Z,30.70
2018-07-25T18:23:53.615Z,30.60
2018-07-25T18:26:22.082Z,30.50
2018-07-25T18:28:50.533Z,30.40
2018-07-25T18:31:19.542Z,30.40
2018-07-25T18:33:48.176Z,30.30
2018-07-25T18:36:16.954Z,30.10
2018-07-25T18:38:45.880Z,30.10
2018-07-25T18:41:14.693Z,29.90
2018-07-25T18:43:43.273Z,29.90
2018-07-25T18:46:12.062Z,29.80
2018-07-25T18:48:40.851Z,29.80
2018-07-25T18:51:09.845Z,29.60
2018-07-25T18:53:39.043Z,29.70
2018-07-25T18:56:07.801Z,29.50
2018-07-25T18:58:36.349Z,29.40
2018-07-25T19:01:05.205Z,29.30
2018-07-25T19:03:34.068Z,29.10
2018-07-25T19:06:02.689Z,29.00
2018-07-25T19:08:31.557Z,29.00
2018-07-25T19:11:00.110Z,28.90
2018-07-25T19:13:34.292Z,28.90
2018-07-25T19:16:03.849Z,28.70
2018-07-25T19:18:32.871Z,28.70
2018-07-25T19:21:01.371Z,28.70
2018-07-25T19:23:30.166Z,28.70
2018-07-25T19:25:59.033Z,28.60
2018-07-25T19:28:27.821Z,28.50
2018-07-25T19:30:56.618Z,28.50
2018-07-25T19:35:53.684Z,28.40
2018-07-25T19:38:22.570Z,28.40
2018-07-25T19:40:51.051Z,28.30
2018-07-25T19:43:19.786Z,28.30
2018-07-25T19:45:48.201Z,28.20
2018-07-25T19:48:16.711Z,28.20
2018-07-25T19:50:45.726Z,28.20
2018-07-25T19:53:14.686Z,28.10
2018-07-25T19:55:43.497Z,28.00
2018-07-25T19:58:12.282Z,28.00
2018-07-25T20:00:41.060Z,27.90
2018-07-25T20:03:09.641Z,27.90
2018-07-25T20:05:38.098Z,27.80
2018-07-25T20:08:06.664Z,27.80
2018-07-25T20:10:35.490Z,27.70
2018-07-25T20:13:03.985Z,27.60
2018-07-25T20:15:38.029Z,27.50
2018-07-25T20:18:07.153Z,27.50
2018-07-25T20:20:35.670Z,27.40
2018-07-25T20:23:04.242Z,27.30
2018-07-25T20:25:33.015Z,27.30
2018-07-25T20:28:01.492Z,27.20
2018-07-25T20:30:30.012Z,26.60
2018-07-25T20:32:58.524Z,27.00
2018-07-25T20:35:27.055Z,27.00
2018-07-25T20:37:55.577Z,26.90
2018-07-25T20:40:24.045Z,26.90
2018-07-25T20:42:52.918Z,26.80
2018-07-25T20:45:21.407Z,26.80
2018-07-25T20:47:50.189Z,26.80
2018-07-25T20:50:18.736Z,26.70
2018-07-25T20:52:47.278Z,26.70
2018-07-25T20:55:16.053Z,26.70
2018-07-25T20:57:44.537Z,26.70
2018-07-25T21:00:13.472Z,26.70
2018-07-25T21:02:41.952Z,26.70
2018-07-25T21:05:10.797Z,26.60
2018-07-25T21:07:39.290Z,26.60
2018-07-25T21:10:07.761Z,26.50
2018-07-25T21:12:36.190Z,26.50
2018-07-25T21:15:04.837Z,26.50
2018-07-25T21:17:33.302Z,26.50
2018-07-25T21:20:01.725Z,26.50
2018-07-25T21:22:30.173Z,26.50
2018-07-25T21:24:58.627Z,26.30
2018-07-25T21:27:27.088Z,26.30
2018-07-25T21:29:55.605Z,26.40
2018-07-25T21:32:24.017Z,26.30
2018-07-25T21:34:52.436Z,26.30
2018-07-25T21:37:21.021Z,26.30
2018-07-25T21:39:49.436Z,26.30
2018-07-25T21:42:17.918Z,26.30
2018-07-25T21:44:47.806Z,26.10
2018-07-25T21:47:16.320Z,26.00
2018-07-25T21:49:45.068Z,25.90
2018-07-25T21:52:13.485Z,25.90
2018-07-25T21:54:41.944Z,25.90
2018-07-25T21:57:10.472Z,25.90
2018-07-25T21:59:38.904Z,25.90
2018-07-25T22:02:07.328Z,25.80
2018-07-25T22:04:35.850Z,25.70
2018-07-25T22:07:04.350Z,25.60
2018-07-25T22:09:32.741Z,25.50
2018-07-25T22:12:01.130Z,25.50
2018-07-25T22:14:29.890Z,25.50
2018-07-25T22:16:58.336Z,25.50
2018-07-25T22:19:26.731Z,25.40
2018-07-25T22:21:55.255Z,25.40
2018-07-25T22:24:23.725Z,25.40
2018-07-25T22:26:53.300Z,25.50
2018-07-25T22:29:21.784Z,25.50
2018-07-25T22:31:50.160Z,25.50
2018-07-25T22:34:18.582Z,25.40
2018-07-25T22:36:47.016Z,25.30
2018-07-25T22:39:15.449Z,25.20
2018-07-25T22:41:43.895Z,25.10
2018-07-25T22:44:12.433Z,25.10
2018-07-25T22:46:40.829Z,25.10
2018-07-25T22:49:09.279Z,25.00
2018-07-25T22:51:37.725Z,24.90
2018-07-25T22:54:06.358Z,24.90
2018-07-25T22:56:34.763Z,24.80
2018-07-25T22:59:03.355Z,24.80
2018-07-25T23:01:31.745Z,24.80
2018-07-25T23:04:00.176Z,24.70
2018-07-25T23:06:28.700Z,24.60
2018-07-25T23:08:57.108Z,24.50
2018-07-25T23:11:25.536Z,24.40
2018-07-25T23:13:53.995Z,24.40
2018-07-25T23:16:22.492Z,24.30
2018-07-25T23:18:50.946Z,24.30
2018-07-25T23:21:19.348Z,24.30
2018-07-25T23:23:47.756Z,24.20
2018-07-25T23:26:16.186Z,24.20
2018-07-25T23:28:44.572Z,24.10
2018-07-25T23:31:13.148Z,24.00
2018-07-25T23:33:41.547Z,24.00
2018-07-25T23:36:09.984Z,23.90
2018-07-25T23:38:38.403Z,23.90
2018-07-25T23:41:06.832Z,24.00
2018-07-25T23:43:35.300Z,24.00
2018-07-25T23:46:03.780Z,24.00
2018-07-25T23:48:32.202Z,23.90
2018-07-25T23:51:00.617Z,24.00
2018-07-25T23:53:29.033Z,24.00
2018-07-25T23:55:57.531Z,24.10
